Time;durP1;ratioP1;P1;durP2;ratioP2;P2;SDS_P1;SDS_P2;PMS_P1;PMS_P2;Temp;Humidity;BMP_temperature;BMP_pressure;BME280_temperature;BME280_humidity;BME280_pressure;Samples;Min_cycle;Max_cycle;Signal;HPM_P1;HPM_P2
2021/04/13 00:00:23;;;;;;;19.15;18.30;;;;;;;;;;5030117;28;20033;-45
2021/04/13 00:02:50;;;;;;;18.75;18.30;;;;;;;;;;5024075;28;20053;-45
2021/04/13 00:05:16;;;;;;;18.23;17.70;;;;;;;;;;5027323;28;20066;-44
2021/04/13 00:07:44;;;;;;;18.50;17.95;;;;;;;;;;5027639;28;20033;-44
2021/04/13 00:10:37;;;;;;;18.40;17.90;;;;;;;;;;5023820;28;20597;-45
2021/04/13 00:13:04;;;;;;;19.60;19.00;;;;;;;;;;5024938;28;20064;-46
2021/04/13 00:15:50;;;;;;;19.50;18.10;;;;;;;;;;5025844;28;20076;-45
2021/04/13 00:18:19;;;;;;;14.70;14.50;;;;;;;;;;5024815;28;20034;-45
2021/04/13 00:20:49;;;;;;;17.67;16.88;;;;;;;;;;5026745;28;20087;-46
2021/04/13 00:23:17;;;;;;;18.10;17.45;;;;;;;;;;5023922;28;20034;-44
2021/04/13 00:25:53;;;;;;;18.70;18.17;;;;;;;;;;5017257;28;20108;-45
2021/04/13 00:28:20;;;;;;;20.23;19.42;;;;;;;;;;5017354;28;20034;-45
2021/04/13 00:30:48;;;;;;;19.00;18.05;;;;;;;;;;5022243;28;20038;-44
2021/04/13 00:33:16;;;;;;;21.45;20.45;;;;;;;;;;5023637;28;20037;-45
2021/04/13 00:35:49;;;;;;;19.52;18.65;;;;;;;;;;5020619;28;20042;-44
2021/04/13 00:38:28;;;;;;;20.77;19.77;;;;;;;;;;5020193;28;20072;-45
2021/04/13 00:40:55;;;;;;;20.58;19.40;;;;;;;;;;5030213;28;20046;-44
2021/04/13 00:43:24;;;;;;;19.77;18.83;;;;;;;;;;5029040;28;20037;-47
2021/04/13 00:45:50;;;;;;;22.40;21.23;;;;;;;;;;5024996;28;20041;-46
2021/04/13 00:48:36;;;;;;;18.83;18.52;;;;;;;;;;5026540;28;20041;-44
2021/04/13 00:51:15;;;;;;;21.48;20.25;;;;;;;;;;5032212;28;20453;-44
2021/04/13 00:53:43;;;;;;;21.00;19.95;;;;;;;;;;5018648;28;20041;-45
2021/04/13 00:56:10;;;;;;;19.33;19.02;;;;;;;;;;5023545;28;20041;-45
2021/04/13 00:58:41;;;;;;;19.80;19.17;;;;;;;;;;5025209;28;20375;-45
2021/04/13 01:01:19;;;;;;;17.98;17.48;;;;;;;;;;5023842;28;20033;-44
2021/04/13 01:03:53;;;;;;;18.48;17.83;;;;;;;;;;5030915;28;20033;-44
2021/04/13 01:06:22;;;;;;;17.88;17.20;;;;;;;;;;5018195;28;20088;-47
2021/04/13 01:08:57;;;;;;;18.23;17.48;;;;;;;;;;5026195;28;20072;-45
2021/04/13 01:11:26;;;;;;;16.08;15.68;;;;;;;;;;5021978;28;20057;-44
2021/04/13 01:13:54;;;;;;;16.83;16.45;;;;;;;;;;5024342;28;20059;-44
2021/04/13 01:16:29;;;;;;;17.63;17.33;;;;;;;;;;5030192;28;20433;-45
2021/04/13 01:19:10;;;;;;;14.65;14.30;;;;;;;;;;5019314;28;20124;-44
2021/04/13 01:22:00;;;;;;;15.25;14.90;;;;;;;;;;5025180;28;20081;-44
2021/04/13 01:24:31;;;;;;;16.10;15.55;;;;;;;;;;5010162;28;20057;-45
2021/04/13 01:26:58;;;;;;;14.98;14.70;;;;;;;;;;5024744;28;20393;-46
2021/04/13 01:29:26;;;;;;;15.55;15.35;;;;;;;;;;5026120;28;20576;-46
2021/04/13 01:31:56;;;;;;;16.33;15.98;;;;;;;;;;5017635;28;20073;-44
2021/04/13 01:34:32;;;;;;;13.02;12.60;;;;;;;;;;5021405;28;20120;-46
2021/04/13 01:37:03;;;;;;;9.90;9.73;;;;;;;;;;5023513;28;20088;-45
2021/04/13 01:39:32;;;;;;;7.57;7.47;;;;;;;;;;5029273;28;20038;-44
2021/04/13 01:42:00;;;;;;;10.63;9.98;;;;;;;;;;5025164;28;20045;-44
2021/04/13 01:44:35;;;;;;;11.77;11.55;;;;;;;;;;5032882;28;20370;-44
2021/04/13 01:47:02;;;;;;;14.48;13.55;;;;;;;;;;5021001;28;20463;-45
2021/04/13 01:49:30;;;;;;;11.32;10.80;;;;;;;;;;5019119;28;20061;-44
2021/04/13 01:51:56;;;;;;;16.25;15.85;;;;;;;;;;5020546;28;20069;-44
2021/04/13 01:54:23;;;;;;;18.27;17.88;;;;;;;;;;5027517;28;20258;-45
2021/04/13 01:57:01;;;;;;;19.02;18.63;;;;;;;;;;5032013;28;20481;-45
2021/04/13 01:59:42;;;;;;;17.75;17.30;;;;;;;;;;5020667;28;20034;-46
2021/04/13 02:02:13;;;;;;;15.93;15.32;;;;;;;;;;5022422;28;20059;-44
2021/04/13 02:04:46;;;;;;;17.55;17.15;;;;;;;;;;5018471;28;20030;-45
2021/04/13 02:07:42;;;;;;;17.35;16.63;;;;;;;;;;5023342;28;20042;-44
2021/04/13 02:10:10;;;;;;;17.17;16.83;;;;;;;;;;5018481;28;20045;-45
2021/04/13 02:12:37;;;;;;;18.85;18.27;;;;;;;;;;5019613;28;20093;-44
2021/04/13 02:15:07;;;;;;;20.02;19.40;;;;;;;;;;5018854;28;20038;-45
2021/04/13 02:17:37;;;;;;;19.23;18.63;;;;;;;;;;5032175;28;20033;-44
2021/04/13 02:20:06;;;;;;;19.10;18.35;;;;;;;;;;5021056;28;20048;-46
2021/04/13 02:22:32;;;;;;;17.70;16.85;;;;;;;;;;5029349;28;20037;-44
2021/04/13 02:25:00;;;;;;;18.80;18.27;;;;;;;;;;5025833;28;20060;-45
2021/04/13 02:27:29;;;;;;;18.23;17.50;;;;;;;;;;5027274;28;20034;-45
2021/04/13 02:30:15;;;;;;;19.17;18.45;;;;;;;;;;5031623;28;20045;-44
2021/04/13 02:32:43;;;;;;;19.02;18.63;;;;;;;;;;5020516;28;20052;-45
2021/04/13 02:35:20;;;;;;;17.20;16.65;;;;;;;;;;5017527;28;20394;-45
2021/04/13 02:37:48;;;;;;;16.70;16.38;;;;;;;;;;5031375;28;20045;-44
2021/04/13 02:40:34;;;;;;;18.23;17.67;;;;;;;;;;5025983;28;20049;-46
2021/04/13 02:43:06;;;;;;;18.30;17.90;;;;;;;;;;5017087;28;20489;-45
2021/04/13 02:45:45;;;;;;;15.98;15.60;;;;;;;;;;5019504;28;20100;-45
2021/04/13 02:48:22;;;;;;;17.45;16.95;;;;;;;;;;5023860;28;20045;-44
2021/04/13 02:50:49;;;;;;;18.90;18.08;;;;;;;;;;5030151;28;20061;-44
2021/04/13 02:53:21;;;;;;;18.05;17.40;;;;;;;;;;5023597;28;20794;-48
2021/04/13 02:55:50;;;;;;;17.42;16.95;;;;;;;;;;5017822;28;20060;-45
2021/04/13 02:58:17;;;;;;;19.38;18.38;;;;;;;;;;5016786;28;20045;-44
2021/04/13 03:00:45;;;;;;;20.27;19.75;;;;;;;;;;5022221;28;20079;-44
2021/04/13 03:03:19;;;;;;;19.38;18.98;;;;;;;;;;5025169;28;20034;-44
2021/04/13 03:05:50;;;;;;;18.27;17.75;;;;;;;;;;5021295;28;20526;-49
2021/04/13 03:08:17;;;;;;;19.73;18.67;;;;;;;;;;5018786;28;20041;-45
2021/04/13 03:11:07;;;;;;;18.15;17.70;;;;;;;;;;5026189;28;20041;-44
2021/04/13 03:13:34;;;;;;;18.75;18.25;;;;;;;;;;5023224;28;20062;-44
2021/04/13 03:16:01;;;;;;;17.73;17.33;;;;;;;;;;5022665;28;20405;-44
2021/04/13 03:18:48;;;;;;;19.85;18.80;;;;;;;;;;5025193;28;20116;-46
2021/04/13 03:21:19;;;;;;;18.70;18.02;;;;;;;;;;5026663;28;20044;-44
2021/04/13 03:23:46;;;;;;;19.85;19.23;;;;;;;;;;5016775;28;20547;-45
2021/04/13 03:26:16;;;;;;;20.80;19.60;;;;;;;;;;5021065;28;20049;-46
2021/04/13 03:28:45;;;;;;;17.48;16.98;;;;;;;;;;5023515;28;20052;-47
2021/04/13 03:31:12;;;;;;;18.98;18.27;;;;;;;;;;5021764;28;20041;-46
2021/04/13 03:33:39;;;;;;;19.20;18.48;;;;;;;;;;5031029;28;20083;-44
2021/04/13 03:36:10;;;;;;;20.20;19.58;;;;;;;;;;5015506;28;20049;-45
2021/04/13 03:38:38;;;;;;;19.20;18.60;;;;;;;;;;5020793;28;20045;-46
2021/04/13 03:41:10;;;;;;;19.23;18.73;;;;;;;;;;5024992;28;20056;-45
2021/04/13 03:43:37;;;;;;;18.83;18.35;;;;;;;;;;5019376;28;20034;-44
2021/04/13 03:46:04;;;;;;;16.42;16.02;;;;;;;;;;5020152;28;20540;-47
2021/04/13 03:48:32;;;;;;;18.10;17.70;;;;;;;;;;5018610;28;20437;-46
2021/04/13 03:51:04;;;;;;;17.48;16.98;;;;;;;;;;5018471;28;20049;-44
2021/04/13 03:53:36;;;;;;;15.48;15.13;;;;;;;;;;5017036;28;20041;-46
2021/04/13 03:56:05;;;;;;;15.63;15.40;;;;;;;;;;5027174;28;20045;-45
2021/04/13 03:58:34;;;;;;;15.23;14.70;;;;;;;;;;5027757;28;20405;-45
2021/04/13 04:01:00;;;;;;;15.75;15.20;;;;;;;;;;5015204;28;20126;-44
2021/04/13 04:03:32;;;;;;;14.55;14.35;;;;;;;;;;5018633;28;20062;-46
2021/04/13 04:05:59;;;;;;;11.63;11.38;;;;;;;;;;5014185;28;20045;-45
2021/04/13 04:08:31;;;;;;;12.68;12.15;;;;;;;;;;5022980;28;20041;-47
2021/04/13 04:10:57;;;;;;;12.48;12.13;;;;;;;;;;5030180;28;20103;-45
2021/04/13 04:13:32;;;;;;;14.35;13.88;;;;;;;;;;5030163;28;20524;-44
2021/04/13 04:16:08;;;;;;;17.42;16.95;;;;;;;;;;5029343;28;20040;-44
2021/04/13 04:18:34;;;;;;;17.05;16.52;;;;;;;;;;5017540;28;20045;-45
2021/04/13 04:21:12;;;;;;;16.48;16.08;;;;;;;;;;5024452;28;20038;-44
2021/04/13 04:23:38;;;;;;;19.88;19.33;;;;;;;;;;5028852;28;20100;-46
2021/04/13 04:26:06;;;;;;;17.05;16.42;;;;;;;;;;5028707;28;20034;-44
2021/04/13 04:28:37;;;;;;;16.80;16.58;;;;;;;;;;5030153;28;20040;-45
2021/04/13 04:31:38;;;;;;;17.17;16.73;;;;;;;;;;5020003;28;20045;-47
2021/04/13 04:34:14;;;;;;;17.70;17.17;;;;;;;;;;5032107;28;20111;-44
2021/04/13 04:36:47;;;;;;;16.27;15.50;;;;;;;;;;5029140;28;20062;-48
2021/04/13 04:39:14;;;;;;;;;;;;;;;;;;5033371;28;20049;-45
2021/04/13 04:41:41;;;;;;;16.67;15.77;;;;;;;;;;5026319;28;19927;-48
2021/04/13 04:44:18;;;;;;;16.45;15.98;;;;;;;;;;5031847;28;20064;-45
2021/04/13 04:46:44;;;;;;;19.02;18.40;;;;;;;;;;5032142;28;20073;-45
2021/04/13 04:49:15;;;;;;;18.50;18.00;;;;;;;;;;5030969;28;20057;-46
2021/04/13 04:51:42;;;;;;;15.15;14.93;;;;;;;;;;5026146;28;20053;-44
2021/04/13 04:54:09;;;;;;;17.75;17.50;;;;;;;;;;5029300;28;20043;-45
2021/04/13 04:56:35;;;;;;;18.08;17.77;;;;;;;;;;5030593;28;20061;-46
2021/04/13 04:59:02;;;;;;;19.08;18.50;;;;;;;;;;5024035;28;20104;-45
2021/04/13 05:01:29;;;;;;;16.35;15.82;;;;;;;;;;5021973;28;20052;-46
2021/04/13 05:03:55;;;;;;;16.58;15.77;;;;;;;;;;5032259;28;20041;-45
2021/04/13 05:06:23;;;;;;;15.25;14.80;;;;;;;;;;5026585;28;20050;-46
2021/04/13 05:08:50;;;;;;;16.33;15.90;;;;;;;;;;5023275;28;20064;-45
2021/04/13 05:11:16;;;;;;;10.00;9.70;;;;;;;;;;5024958;28;20045;-45
2021/04/13 05:13:43;;;;;;;10.02;9.50;;;;;;;;;;5029684;28;20429;-45
2021/04/13 05:16:09;;;;;;;12.30;11.90;;;;;;;;;;5020322;28;20038;-49
2021/04/13 05:18:36;;;;;;;13.77;13.50;;;;;;;;;;5027314;28;20056;-45
2021/04/13 05:21:02;;;;;;;11.82;11.18;;;;;;;;;;5028293;28;20045;-45
2021/04/13 05:23:28;;;;;;;15.73;15.20;;;;;;;;;;5022325;28;20474;-46
2021/04/13 05:25:55;;;;;;;15.75;15.32;;;;;;;;;;5019027;28;20069;-46
2021/04/13 05:28:21;;;;;;;17.27;16.92;;;;;;;;;;5020015;28;20038;-45
2021/04/13 05:30:49;;;;;;;11.75;11.35;;;;;;;;;;5024490;28;20120;-47
2021/04/13 05:33:15;;;;;;;11.45;11.05;;;;;;;;;;5032194;28;20052;-46
2021/04/13 05:35:42;;;;;;;20.67;19.35;;;;;;;;;;5024543;28;20053;-45
2021/04/13 05:38:14;;;;;;;17.35;16.55;;;;;;;;;;5019454;28;20091;-45
2021/04/13 05:40:40;;;;;;;18.73;17.63;;;;;;;;;;5019638;28;20061;-46
2021/04/13 05:43:08;;;;;;;17.92;17.08;;;;;;;;;;5021762;28;20449;-46
2021/04/13 05:45:35;;;;;;;13.82;13.30;;;;;;;;;;5024745;28;20553;-44
2021/04/13 05:48:02;;;;;;;15.15;14.50;;;;;;;;;;5027066;28;20107;-45
2021/04/13 05:50:38;;;;;;;15.98;15.57;;;;;;;;;;5022833;28;20155;-47
2021/04/13 05:53:05;;;;;;;13.45;12.85;;;;;;;;;;5027954;28;20494;-46
2021/04/13 05:55:32;;;;;;;13.05;12.75;;;;;;;;;;5029255;28;20045;-46
2021/04/13 05:58:04;;;;;;;17.52;17.02;;;;;;;;;;5021217;28;20056;-49
2021/04/13 06:00:30;;;;;;;19.45;18.75;;;;;;;;;;5026395;28;20386;-46
2021/04/13 06:02:58;;;;;;;12.50;12.10;;;;;;;;;;5031267;28;20714;-48
2021/04/13 06:05:26;;;;;;;18.35;17.55;;;;;;;;;;5021650;28;20482;-46
2021/04/13 06:07:52;;;;;;;18.40;17.90;;;;;;;;;;5018307;28;20060;-47
2021/04/13 06:10:19;;;;;;;16.65;15.85;;;;;;;;;;5029477;28;20033;-48
2021/04/13 06:12:56;;;;;;;18.17;17.38;;;;;;;;;;5027351;28;20645;-46
2021/04/13 06:15:23;;;;;;;18.52;17.60;;;;;;;;;;5035018;28;20041;-46
2021/04/13 06:17:50;;;;;;;16.05;14.95;;;;;;;;;;5019638;28;20057;-48
2021/04/13 06:20:17;;;;;;;17.10;15.88;;;;;;;;;;5021634;28;20550;-47
2021/04/13 06:22:44;;;;;;;16.88;16.20;;;;;;;;;;5017901;28;20040;-45
2021/04/13 06:25:14;;;;;;;17.58;16.77;;;;;;;;;;5025536;28;20784;-45
2021/04/13 06:27:40;;;;;;;17.42;16.02;;;;;;;;;;5025837;28;20048;-45
2021/04/13 06:30:07;;;;;;;17.38;16.23;;;;;;;;;;5025299;28;20049;-45
2021/04/13 06:32:34;;;;;;;18.27;17.38;;;;;;;;;;5030891;28;20057;-44
2021/04/13 06:35:00;;;;;;;16.67;16.10;;;;;;;;;;5025716;28;20095;-45
2021/04/13 06:37:26;;;;;;;16.05;14.60;;;;;;;;;;5029167;28;20113;-46
2021/04/13 06:39:53;;;;;;;14.15;13.45;;;;;;;;;;5020875;28;20038;-49
2021/04/13 06:42:38;;;;;;;16.77;16.00;;;;;;;;;;5024102;28;20410;-45
2021/04/13 06:45:15;;;;;;;14.98;14.35;;;;;;;;;;5030689;28;20395;-45
2021/04/13 06:47:50;;;;;;;16.13;15.52;;;;;;;;;;5027944;28;20056;-45
2021/04/13 06:50:28;;;;;;;14.55;13.70;;;;;;;;;;5027380;28;20503;-47
2021/04/13 06:53:14;;;;;;;9.07;8.27;;;;;;;;;;5021435;28;20444;-45
2021/04/13 06:55:59;;;;;;;11.00;10.45;;;;;;;;;;5025536;28;20111;-46
2021/04/13 06:58:44;;;;;;;14.55;13.10;;;;;;;;;;5027213;28;20053;-45
2021/04/13 07:01:14;;;;;;;5.97;5.53;;;;;;;;;;5015978;28;20137;-47
2021/04/13 07:03:55;;;;;;;7.07;5.95;;;;;;;;;;5025512;28;20049;-45
2021/04/13 07:06:38;;;;;;;11.75;8.85;;;;;;;;;;5022620;28;20038;-46
2021/04/13 07:09:18;;;;;;;15.52;12.63;;;;;;;;;;5031392;28;20470;-45
2021/04/13 07:11:44;;;;;;;19.13;13.05;;;;;;;;;;5020860;28;20108;-45
2021/04/13 07:14:13;;;;;;;13.13;12.50;;;;;;;;;;5017712;28;20434;-47
2021/04/13 07:16:46;;;;;;;9.98;9.25;;;;;;;;;;5017149;28;20355;-47
2021/04/13 07:19:18;;;;;;;11.88;9.35;;;;;;;;;;5021358;28;20099;-47
2021/04/13 07:21:54;;;;;;;11.48;10.80;;;;;;;;;;5030952;28;20034;-45
2021/04/13 07:24:24;;;;;;;8.50;7.93;;;;;;;;;;5018395;28;20128;-45
2021/04/13 07:27:13;;;;;;;12.20;8.45;;;;;;;;;;5016943;28;20411;-48
2021/04/13 07:29:45;;;;;;;8.57;7.85;;;;;;;;;;5030302;28;20041;-45
2021/04/13 07:32:14;;;;;;;22.05;17.35;;;;;;;;;;5024387;28;20049;-48
2021/04/13 07:34:41;;;;;;;15.02;13.40;;;;;;;;;;5024604;28;20041;-44
2021/04/13 07:37:16;;;;;;;9.93;8.90;;;;;;;;;;5022576;28;20052;-45
2021/04/13 07:39:47;;;;;;;11.63;8.68;;;;;;;;;;5027486;28;20052;-46
2021/04/13 07:42:23;;;;;;;11.88;5.72;;;;;;;;;;5028776;28;20081;-46
2021/04/13 07:44:49;;;;;;;12.48;7.90;;;;;;;;;;5024367;28;20425;-45
2021/04/13 07:47:24;;;;;;;10.75;8.55;;;;;;;;;;5031574;28;20053;-45
2021/04/13 07:49:52;;;;;;;11.93;8.07;;;;;;;;;;5021866;28;20038;-46
2021/04/13 07:52:18;;;;;;;8.02;5.32;;;;;;;;;;5026942;28;20074;-46
2021/04/13 07:54:56;;;;;;;6.35;5.70;;;;;;;;;;5029694;28;20033;-45
2021/04/13 07:57:42;;;;;;;6.90;4.30;;;;;;;;;;5024858;28;20045;-48
2021/04/13 08:00:18;;;;;;;8.10;5.65;;;;;;;;;;5024858;28;20041;-45
2021/04/13 08:03:00;;;;;;;5.67;4.27;;;;;;;;;;5022027;28;20124;-45
2021/04/13 08:05:38;;;;;;;5.80;4.85;;;;;;;;;;5022286;28;20038;-44
2021/04/13 08:08:07;;;;;;;9.70;5.55;;;;;;;;;;5027743;28;20049;-45
2021/04/13 08:10:38;;;;;;;5.25;4.47;;;;;;;;;;5019143;28;20046;-45
2021/04/13 08:13:10;;;;;;;7.85;6.13;;;;;;;;;;5020465;28;20476;-49
2021/04/13 08:15:48;;;;;;;2.15;2.15;;;;;;;;;;5020941;28;20103;-47
2021/04/13 08:18:18;;;;;;;2.53;2.53;;;;;;;;;;5024093;28;20049;-45
2021/04/13 08:20:45;;;;;;;1.85;1.85;;;;;;;;;;5027753;28;20100;-45
2021/04/13 08:23:36;;;;;;;2.75;2.60;;;;;;;;;;5025179;28;20030;-47
2021/04/13 08:26:18;;;;;;;7.03;6.93;;;;;;;;;;5027064;28;20060;-45
2021/04/13 08:29:03;;;;;;;6.13;6.03;;;;;;;;;;5023470;28;20041;-46
2021/04/13 08:34:24;;;;;;;8.45;8.25;;;;;;;;;;5026604;28;20375;-45
2021/04/13 08:37:08;;;;;;;8.93;8.73;;;;;;;;;;5014663;28;20034;-44
2021/04/13 08:39:48;;;;;;;5.70;5.35;;;;;;;;;;5023278;28;20045;-45
2021/04/13 08:42:23;;;;;;;5.15;4.80;;;;;;;;;;5027636;28;20510;-45
2021/04/13 08:44:49;;;;;;;3.30;3.10;;;;;;;;;;5030095;28;20105;-44
2021/04/13 08:47:26;;;;;;;2.22;2.13;;;;;;;;;;5025748;28;20037;-44
2021/04/13 08:49:54;;;;;;;2.03;1.58;;;;;;;;;;5014264;28;20069;-44
2021/04/13 08:52:26;;;;;;;2.70;2.50;;;;;;;;;;5025392;28;20038;-43
2021/04/13 08:55:01;;;;;;;1.35;1.35;;;;;;;;;;5026613;28;20371;-49
2021/04/13 08:57:31;;;;;;;1.75;1.75;;;;;;;;;;5030196;28;20465;-46
2021/04/13 08:59:59;;;;;;;1.30;1.30;;;;;;;;;;5026168;28;20050;-44
2021/04/13 09:02:27;;;;;;;2.45;2.45;;;;;;;;;;5028160;28;20108;-48
2021/04/13 09:05:34;;;;;;;2.20;2.20;;;;;;;;;;5044957;28;20041;-44
2021/04/13 09:08:19;;;;;;;5.00;4.28;;;;;;;;;;5048248;28;20049;-45
2021/04/13 09:11:04;;;;;;;6.70;6.70;;;;;;;;;;5053215;28;20053;-48
2021/04/13 09:13:33;;;;;;;6.78;6.78;;;;;;;;;;5039822;28;20053;-44
2021/04/13 09:16:00;;;;;;;3.78;3.78;;;;;;;;;;5040688;28;20056;-44
2021/04/13 09:18:32;;;;;;;2.53;2.53;;;;;;;;;;5051634;28;20048;-44
2021/04/13 09:21:03;;;;;;;1.23;1.23;;;;;;;;;;5044068;28;20045;-44
2021/04/13 09:23:45;;;;;;;3.97;3.88;;;;;;;;;;5034942;28;20049;-46
2021/04/13 09:26:16;;;;;;;5.93;5.60;;;;;;;;;;5046913;28;20041;-44
2021/04/13 09:28:45;;;;;;;5.07;5.07;;;;;;;;;;5047676;28;20512;-44
2021/04/13 09:31:11;;;;;;;4.13;4.13;;;;;;;;;;5051751;28;20497;-45
2021/04/13 09:33:39;;;;;;;6.85;6.85;;;;;;;;;;5045753;28;20044;-45
2021/04/13 09:36:28;;;;;;;7.50;7.50;;;;;;;;;;5050689;28;20448;-44
2021/04/13 09:38:58;;;;;;;2.93;2.93;;;;;;;;;;5036629;28;20057;-45
2021/04/13 09:41:43;;;;;;;2.28;2.28;;;;;;;;;;5027080;28;20038;-49
2021/04/13 09:44:22;;;;;;;1.40;1.40;;;;;;;;;;5019631;28;20041;-44
2021/04/13 09:46:51;;;;;;;2.78;2.10;;;;;;;;;;5027601;28;20555;-44
2021/04/13 09:49:28;;;;;;;3.42;3.33;;;;;;;;;;5026284;28;20607;-44
2021/04/13 09:52:14;;;;;;;2.33;2.33;;;;;;;;;;5031549;28;20478;-45
2021/04/13 09:54:47;;;;;;;2.03;2.03;;;;;;;;;;5021384;28;20050;-46
2021/04/13 09:57:20;;;;;;;1.20;1.20;;;;;;;;;;5025426;28;20054;-46
2021/04/13 10:00:05;;;;;;;1.08;1.08;;;;;;;;;;5018453;28;20037;-44
2021/04/13 10:02:31;;;;;;;1.00;1.00;;;;;;;;;;5023544;28;20045;-44
2021/04/13 10:05:09;;;;;;;1.00;1.00;;;;;;;;;;5033897;28;20048;-46
2021/04/13 10:07:52;;;;;;;1.10;1.00;;;;;;;;;;5024311;28;20425;-46
2021/04/13 10:10:22;;;;;;;1.10;1.10;;;;;;;;;;5027904;28;20033;-44
2021/04/13 10:13:05;;;;;;;2.75;2.75;;;;;;;;;;5029998;28;20100;-46
2021/04/13 10:15:37;;;;;;;1.10;1.10;;;;;;;;;;5026249;28;20034;-44
2021/04/13 10:18:21;;;;;;;1.10;1.10;;;;;;;;;;5026815;28;20128;-44
2021/04/13 10:20:55;;;;;;;1.30;1.30;;;;;;;;;;5028980;28;20042;-43
2021/04/13 10:23:30;;;;;;;1.17;1.17;;;;;;;;;;5022927;28;20029;-44
2021/04/13 10:26:02;;;;;;;1.13;1.13;;;;;;;;;;5017880;28;20041;-44
2021/04/13 10:28:54;;;;;;;1.10;1.10;;;;;;;;;;5024350;28;20034;-44
2021/04/13 10:31:27;;;;;;;8.30;6.88;;;;;;;;;;5022016;28;20390;-44
2021/04/13 10:34:13;;;;;;;6.72;6.43;;;;;;;;;;5030160;28;20048;-45
2021/04/13 10:36:48;;;;;;;1.30;1.30;;;;;;;;;;5021204;28;20042;-44
2021/04/13 10:39:31;;;;;;;2.63;2.63;;;;;;;;;;5027921;28;20053;-46
2021/04/13 10:42:03;;;;;;;1.83;1.83;;;;;;;;;;5026262;28;20532;-44
2021/04/13 10:44:48;;;;;;;1.35;1.35;;;;;;;;;;5022135;28;20037;-44
2021/04/13 10:47:29;;;;;;;1.20;1.20;;;;;;;;;;5027365;28;20104;-45
2021/04/13 10:50:17;;;;;;;0.90;0.90;;;;;;;;;;5032130;28;20045;-43
2021/04/13 10:53:00;;;;;;;1.02;1.02;;;;;;;;;;5022664;28;20034;-44
2021/04/13 10:55:27;;;;;;;;;;;;;;;;;;5018289;28;20084;-45
2021/04/13 10:58:15;;;;;;;1.10;1.10;;;;;;;;;;5019663;28;19922;-47
2021/04/13 11:01:04;;;;;;;1.00;1.00;;;;;;;;;;5024602;28;20034;-45
2021/04/13 11:04:02;;;;;;;1.00;1.00;;;;;;;;;;5017196;28;20056;-46
2021/04/13 11:06:29;;;;;;;1.00;1.00;;;;;;;;;;5029141;28;20107;-44
2021/04/13 11:09:04;;;;;;;1.10;1.10;;;;;;;;;;5025295;28;20045;-44
2021/04/13 11:11:42;;;;;;;1.42;1.42;;;;;;;;;;5025954;28;20044;-46
2021/04/13 11:14:10;;;;;;;2.72;2.63;;;;;;;;;;5026768;28;20041;-46
2021/04/13 11:16:58;;;;;;;3.78;3.70;;;;;;;;;;5026373;28;20125;-44
2021/04/13 11:19:40;;;;;;;0.90;0.90;;;;;;;;;;5046283;28;20462;-48
2021/04/13 11:22:25;;;;;;;0.80;0.80;;;;;;;;;;5018423;28;20117;-46
2021/04/13 11:24:51;;;;;;;1.10;1.10;;;;;;;;;;5020129;28;20286;-48
2021/04/13 11:27:20;;;;;;;0.88;0.88;;;;;;;;;;5029359;28;20068;-45
2021/04/13 11:29:52;;;;;;;1.00;1.00;;;;;;;;;;5022533;28;20486;-46
2021/04/13 11:32:37;;;;;;;1.00;1.00;;;;;;;;;;5027865;28;20475;-46
2021/04/13 11:35:22;;;;;;;1.10;1.10;;;;;;;;;;5018498;28;20045;-46
2021/04/13 11:38:07;;;;;;;0.80;0.80;;;;;;;;;;5020235;28;20042;-47
2021/04/13 11:40:55;;;;;;;0.90;0.90;;;;;;;;;;5021147;28;20037;-47
2021/04/13 11:43:23;;;;;;;0.90;0.90;;;;;;;;;;5025396;28;20103;-48
2021/04/13 11:45:49;;;;;;;0.90;0.90;;;;;;;;;;5026239;28;20362;-48
2021/04/13 11:48:28;;;;;;;0.90;0.90;;;;;;;;;;5015829;28;20356;-46
2021/04/13 11:50:55;;;;;;;1.10;1.10;;;;;;;;;;5018833;28;20049;-44
2021/04/13 11:53:33;;;;;;;0.90;0.90;;;;;;;;;;5023208;28;20072;-44
2021/04/13 11:56:01;;;;;;;0.80;0.80;;;;;;;;;;5022370;28;20037;-43
2021/04/13 11:58:31;;;;;;;0.90;0.90;;;;;;;;;;5026142;28;20073;-45
2021/04/13 12:01:13;;;;;;;0.90;0.90;;;;;;;;;;5025025;28;20080;-44
2021/04/13 12:03:41;;;;;;;1.33;0.80;;;;;;;;;;5020944;28;20049;-46
2021/04/13 12:06:11;;;;;;;0.80;0.80;;;;;;;;;;5028123;28;20091;-45
2021/04/13 12:08:38;;;;;;;0.80;0.80;;;;;;;;;;5020676;28;20049;-44
2021/04/13 12:11:06;;;;;;;0.80;0.80;;;;;;;;;;5021507;28;20064;-44
2021/04/13 12:13:35;;;;;;;0.90;0.90;;;;;;;;;;5017857;28;20042;-48
2021/04/13 12:16:02;;;;;;;0.90;0.90;;;;;;;;;;5017756;28;20034;-43
2021/04/13 12:18:52;;;;;;;0.90;0.90;;;;;;;;;;5018776;28;20057;-45
2021/04/13 12:21:24;;;;;;;0.80;0.80;;;;;;;;;;5013691;28;20057;-45
2021/04/13 12:24:02;;;;;;;0.90;0.90;;;;;;;;;;5023886;28;20038;-43
2021/04/13 12:26:28;;;;;;;1.00;1.00;;;;;;;;;;5013251;28;20047;-45
2021/04/13 12:28:54;;;;;;;0.90;0.90;;;;;;;;;;5022964;28;20046;-44
2021/04/13 12:31:24;;;;;;;1.10;1.10;;;;;;;;;;5028928;28;20458;-46
2021/04/13 12:33:52;;;;;;;1.10;1.10;;;;;;;;;;5030378;28;20478;-43
2021/04/13 12:36:37;;;;;;;0.90;0.90;;;;;;;;;;5026126;28;20050;-47
2021/04/13 12:39:04;;;;;;;0.90;0.90;;;;;;;;;;5032168;28;20124;-45
2021/04/13 12:41:52;;;;;;;0.90;0.90;;;;;;;;;;5020953;28;20439;-47
2021/04/13 12:44:18;;;;;;;0.90;0.90;;;;;;;;;;5021972;28;20107;-47
2021/04/13 12:46:50;;;;;;;0.90;0.90;;;;;;;;;;5023201;28;20537;-47
2021/04/13 12:49:36;;;;;;;6.13;1.08;;;;;;;;;;5026008;28;20123;-43
2021/04/13 12:52:07;;;;;;;1.00;1.00;;;;;;;;;;5019714;28;20042;-45
2021/04/13 12:54:44;;;;;;;1.10;1.10;;;;;;;;;;5019740;28;20136;-44
2021/04/13 12:57:21;;;;;;;1.17;1.17;;;;;;;;;;5024049;28;20042;-46
2021/04/13 12:59:49;;;;;;;1.75;1.15;;;;;;;;;;5023016;28;20570;-45
2021/04/13 13:02:30;;;;;;;1.10;1.10;;;;;;;;;;5022831;28;20034;-43
2021/04/13 13:04:57;;;;;;;1.30;1.30;;;;;;;;;;5030148;28;20808;-44
2021/04/13 13:07:25;;;;;;;1.10;1.10;;;;;;;;;;5033143;28;20042;-45
2021/04/13 13:09:51;;;;;;;1.20;1.20;;;;;;;;;;5026041;28;20070;-44
2021/04/13 13:12:19;;;;;;;1.90;1.90;;;;;;;;;;5019270;28;20119;-45
2021/04/13 13:14:48;;;;;;;1.60;1.60;;;;;;;;;;5020840;28;20398;-44
2021/04/13 13:17:18;;;;;;;1.20;1.20;;;;;;;;;;5029308;28;20517;-44
2021/04/13 13:19:47;;;;;;;1.55;1.55;;;;;;;;;;5024135;28;20049;-44
2021/04/13 13:22:18;;;;;;;2.65;2.65;;;;;;;;;;5027877;28;20041;-44
2021/04/13 13:24:48;;;;;;;1.42;1.42;;;;;;;;;;5034168;28;20041;-44
2021/04/13 13:27:26;;;;;;;1.50;1.50;;;;;;;;;;5023060;28;20088;-47
2021/04/13 13:29:53;;;;;;;1.35;1.35;;;;;;;;;;5028715;28;20038;-43
2021/04/13 13:32:21;;;;;;;2.15;1.85;;;;;;;;;;5028930;28;20041;-44
2021/04/13 13:34:49;;;;;;;4.18;4.18;;;;;;;;;;5025692;28;20415;-43
2021/04/13 13:37:16;;;;;;;4.90;4.90;;;;;;;;;;5035404;28;20525;-44
2021/04/13 13:39:43;;;;;;;8.18;8.07;;;;;;;;;;5023668;28;20141;-43
2021/04/13 13:42:12;;;;;;;6.57;6.38;;;;;;;;;;5031508;28;20034;-47
2021/04/13 13:44:43;;;;;;;2.42;2.28;;;;;;;;;;5025785;28;20040;-43
2021/04/13 13:47:24;;;;;;;2.10;2.10;;;;;;;;;;5027936;28;20717;-48
2021/04/13 13:49:52;;;;;;;5.38;5.38;;;;;;;;;;5040738;28;20068;-44
2021/04/13 13:52:39;;;;;;;12.63;12.52;;;;;;;;;;5052927;28;20053;-45
2021/04/13 13:55:20;;;;;;;13.82;13.73;;;;;;;;;;5053074;28;20374;-45
2021/04/13 13:57:58;;;;;;;14.50;14.40;;;;;;;;;;5052546;28;20072;-44
2021/04/13 14:00:30;;;;;;;10.25;10.15;;;;;;;;;;5051413;28;20080;-44
2021/04/13 14:03:06;;;;;;;13.55;13.45;;;;;;;;;;5053852;28;20535;-46
2021/04/13 14:05:35;;;;;;;14.38;14.07;;;;;;;;;;5053309;28;20037;-45
2021/04/13 14:08:12;;;;;;;14.23;14.13;;;;;;;;;;5051327;28;20041;-43
2021/04/13 14:10:40;;;;;;;15.00;14.90;;;;;;;;;;5045542;28;20037;-43
2021/04/13 14:13:14;;;;;;;15.10;15.00;;;;;;;;;;5034699;28;20481;-43
2021/04/13 14:15:51;;;;;;;12.90;12.70;;;;;;;;;;5053300;28;20056;-44
2021/04/13 14:18:29;;;;;;;14.40;14.30;;;;;;;;;;5053584;28;20047;-44
2021/04/13 14:20:58;;;;;;;14.77;14.48;;;;;;;;;;5052544;28;20076;-43
2021/04/13 14:23:24;;;;;;;13.40;13.30;;;;;;;;;;5053206;28;20582;-44
2021/04/13 14:25:50;;;;;;;14.27;14.18;;;;;;;;;;5052897;28;20064;-43
2021/04/13 14:28:19;;;;;;;14.75;14.65;;;;;;;;;;5052668;28;20088;-44
2021/04/13 14:30:46;;;;;;;13.63;13.52;;;;;;;;;;5052647;28;20088;-47
2021/04/13 14:33:12;;;;;;;13.75;13.65;;;;;;;;;;5050831;28;20571;-46
2021/04/13 14:35:39;;;;;;;14.15;13.95;;;;;;;;;;5045830;28;20040;-45
2021/04/13 14:38:09;;;;;;;14.80;14.60;;;;;;;;;;5051112;28;20052;-45
2021/04/13 14:40:36;;;;;;;12.68;12.57;;;;;;;;;;5040676;28;20068;-43
2021/04/13 14:43:02;;;;;;;13.63;13.52;;;;;;;;;;5052533;28;20033;-44
2021/04/13 14:45:29;;;;;;;13.68;13.57;;;;;;;;;;5050538;28;20413;-45
2021/04/13 14:48:04;;;;;;;13.68;13.57;;;;;;;;;;5053429;28;20037;-44
2021/04/13 14:50:32;;;;;;;14.25;13.98;;;;;;;;;;5043453;28;20107;-47
2021/04/13 14:52:59;;;;;;;8.43;8.43;;;;;;;;;;5050985;28;20040;-43
2021/04/13 14:55:25;;;;;;;5.90;5.90;;;;;;;;;;5049893;28;20051;-46
2021/04/13 14:57:56;;;;;;;3.65;3.65;;;;;;;;;;5050036;28;20076;-44
2021/04/13 15:00:24;;;;;;;5.03;4.85;;;;;;;;;;5052246;28;20519;-47
2021/04/13 15:02:50;;;;;;;6.35;6.35;;;;;;;;;;5049028;28;20473;-45